Aviation Digital Data Service (ADDS)

Output produced by TAFs form (1444 UTC 01 February 2015)
found at http://www.aviationweather.gov/adds/tafs/
 
KAPA 011353Z 07005KT 10SM FEW017 OVC024 M08/M10 A3008 RMK AO2 SNE35 SLP228 P0000 T10781100 $
KAPA 011121Z 0112/0212 04007KT 3SM -SN SCT008 OVC020 
     TEMPO 0112/0113 1 1/2SM -SN BR BKN008 OVC012 
     FM011400 05007KT P6SM VCSH SCT012 BKN022 BKN040 
     FM011600 06007KT P6SM SCT020 BKN040 
     FM011900 07008KT P6SM SCT040 BKN080 
     FM020100 14007KT P6SM FEW060 SCT120 BKN200 
     FM020600 18009KT P6SM SCT120 BKN200